Time;durP1;ratioP1;P1;durP2;ratioP2;P2;SDS_P1;SDS_P2;PMS_P1;PMS_P2;Temp;Humidity;BMP_temperature;BMP_pressure;BME280_temperature;BME280_humidity;BME280_pressure;Samples;Min_cycle;Max_cycle;Signal;HPM_P1;HPM_P2
2023/01/07 00:01:45;;;;;;;0.10;0.10;;;11.00;99.90;;;;;;5037556;28;20185;-82
2023/01/07 00:04:12;;;;;;;0.10;0.10;;;11.00;99.90;;;;;;5053968;28;20754;-81
2023/01/07 00:06:39;;;;;;;0.10;0.10;;;10.80;99.90;;;;;;5056199;28;20561;-81
2023/01/07 00:09:07;;;;;;;0.10;0.10;;;10.80;99.90;;;;;;5035587;28;20207;-81
2023/01/07 00:11:35;;;;;;;0.10;0.10;;;10.90;99.90;;;;;;5051611;28;20204;-80
2023/01/07 00:14:03;;;;;;;0.10;0.10;;;10.70;99.90;;;;;;5036363;28;20208;-81
2023/01/07 00:16:31;;;;;;;0.10;0.10;;;10.90;99.90;;;;;;5034851;28;20185;-80
2023/01/07 00:18:59;;;;;;;0.10;0.10;;;10.90;99.90;;;;;;5036654;28;20195;-81
2023/01/07 00:21:26;;;;;;;0.10;0.10;;;10.90;99.90;;;;;;5053297;28;20267;-81
2023/01/07 00:24:01;;;;;;;0.10;0.10;;;11.00;99.90;;;;;;5054920;28;20685;-81
2023/01/07 00:26:30;;;;;;;0.10;0.10;;;11.00;99.90;;;;;;5036068;28;20200;-81
2023/01/07 00:28:56;;;;;;;0.10;0.10;;;11.00;99.90;;;;;;5056486;28;20176;-80
2023/01/07 00:31:27;;;;;;;0.10;0.10;;;11.10;99.90;;;;;;5039062;28;20273;-81
2023/01/07 00:36:19;;;;;;;0.10;0.10;;;11.20;99.90;;;;;;5057081;28;20196;-81
2023/01/07 00:38:45;;;;;;;0.10;0.10;;;11.20;99.90;;;;;;5035611;28;20273;-81
2023/01/07 00:41:10;;;;;;;0.10;0.10;;;11.30;99.90;;;;;;5056866;28;20614;-81
2023/01/07 00:43:36;;;;;;;0.10;0.10;;;11.30;99.90;;;;;;5036032;28;20204;-81
2023/01/07 00:46:02;;;;;;;0.10;0.10;;;11.30;99.90;;;;;;5036976;28;20196;-81
2023/01/07 00:48:28;;;;;;;0.10;0.10;;;11.30;99.90;;;;;;5035650;28;20236;-81
2023/01/07 00:50:53;;;;;;;0.03;0.03;;;11.30;99.90;;;;;;5038167;28;20665;-81
2023/01/07 00:53:20;;;;;;;0.10;0.10;;;11.30;99.90;;;;;;5038342;28;20185;-81
2023/01/07 00:55:48;;;;;;;0.03;0.03;;;11.30;99.90;;;;;;5036542;28;20308;-81
2023/01/07 00:58:17;;;;;;;0.10;0.10;;;11.30;99.90;;;;;;5036509;28;20189;-81
2023/01/07 01:00:42;;;;;;;0.10;0.10;;;11.30;99.90;;;;;;5054588;28;20190;-81
2023/01/07 01:03:10;;;;;;;0.10;0.10;;;11.30;99.90;;;;;;5053284;28;20205;-81
2023/01/07 01:05:35;;;;;;;0.10;0.10;;;11.30;99.90;;;;;;5035826;28;20203;-81
2023/01/07 01:08:01;;;;;;;0.10;0.10;;;11.30;99.90;;;;;;5056242;28;20186;-81
2023/01/07 01:10:27;;;;;;;0.10;0.10;;;11.30;99.90;;;;;;5040184;28;20718;-81
2023/01/07 01:12:52;;;;;;;0.10;0.10;;;11.30;99.90;;;;;;5039451;28;20268;-81
2023/01/07 01:15:18;;;;;;;0.10;0.10;;;11.20;99.90;;;;;;5040638;28;20273;-81
2023/01/07 01:17:44;;;;;;;0.10;0.10;;;11.20;99.90;;;;;;5041036;28;20658;-81
2023/01/07 01:20:13;;;;;;;0.10;0.10;;;11.20;99.90;;;;;;5059160;28;20589;-81
2023/01/07 01:22:38;;;;;;;0.10;0.10;;;11.20;99.90;;;;;;5039148;28;20841;-82
2023/01/07 01:25:04;;;;;;;0.10;0.10;;;11.20;99.90;;;;;;5039794;28;20281;-81
2023/01/07 01:27:30;;;;;;;0.10;0.10;;;11.10;99.90;;;;;;5057063;28;20701;-81
2023/01/07 01:29:57;;;;;;;0.03;0.03;;;11.20;99.90;;;;;;5041148;28;20186;-81
2023/01/07 01:32:23;;;;;;;0.10;0.10;;;11.10;99.90;;;;;;5037811;28;20182;-81
2023/01/07 01:34:48;;;;;;;0.10;0.10;;;11.10;99.90;;;;;;5056311;28;20239;-81
2023/01/07 01:37:14;;;;;;;0.10;0.10;;;11.10;99.90;;;;;;5039765;28;20201;-81
2023/01/07 01:39:39;;;;;;;0.10;0.10;;;11.10;99.90;;;;;;5039954;28;20280;-81
2023/01/07 01:42:05;;;;;;;0.10;0.10;;;11.00;99.90;;;;;;5058286;28;20185;-81
2023/01/07 01:44:50;;;;;;;0.10;0.10;;;11.10;99.90;;;;;;5057782;28;20272;-81
2023/01/07 01:47:24;;;;;;;0.10;0.10;;;11.00;99.90;;;;;;5039544;28;20192;-81
2023/01/07 01:50:18;;;;;;;0.07;0.07;;;11.00;99.90;;;;;;5058563;28;20189;-81
2023/01/07 01:53:06;;;;;;;0.10;0.10;;;11.10;99.90;;;;;;5041648;28;20220;-81
2023/01/07 01:55:39;;;;;;;0.10;0.10;;;11.10;99.90;;;;;;5039815;28;20292;-81
2023/01/07 01:58:08;;;;;;;0.10;0.10;;;11.00;99.90;;;;;;5038916;28;20714;-82
2023/01/07 02:00:34;;;;;;;0.30;0.30;;;11.00;99.90;;;;;;5036791;28;20188;-81
2023/01/07 02:03:00;;;;;;;0.10;0.10;;;11.00;99.90;;;;;;5039003;28;20221;-81
2023/01/07 02:05:32;;;;;;;0.10;0.10;;;11.00;99.90;;;;;;5037990;28;20232;-81
2023/01/07 02:07:57;;;;;;;0.10;0.10;;;11.00;99.90;;;;;;5058704;28;20195;-81
2023/01/07 02:10:24;;;;;;;0.10;0.10;;;11.00;99.90;;;;;;5039006;28;20173;-81
2023/01/07 02:13:20;;;;;;;0.10;0.10;;;11.00;99.90;;;;;;5056343;28;20218;-82
2023/01/07 02:16:01;;;;;;;0.10;0.10;;;11.00;99.90;;;;;;5040248;28;20303;-81
2023/01/07 02:18:51;;;;;;;0.10;0.10;;;11.00;99.90;;;;;;5040178;28;20280;-81
2023/01/07 02:21:36;;;;;;;0.10;0.10;;;10.90;99.90;;;;;;5038048;28;20193;-81
2023/01/07 02:24:25;;;;;;;0.10;0.10;;;10.90;99.90;;;;;;5039257;28;20227;-81
2023/01/07 02:27:09;;;;;;;0.10;0.10;;;10.90;99.90;;;;;;5042690;28;20198;-81
2023/01/07 02:29:55;;;;;;;0.10;0.10;;;11.00;99.90;;;;;;5038690;28;20204;-82
2023/01/07 02:32:42;;;;;;;0.10;0.10;;;11.00;99.90;;;;;;5036417;28;20189;-80
2023/01/07 02:35:39;;;;;;;0.10;0.10;;;11.00;99.90;;;;;;5037089;28;20218;-80
2023/01/07 02:38:43;;;;;;;0.10;0.10;;;10.90;99.90;;;;;;5056257;28;20185;-81
2023/01/07 02:41:27;;;;;;;0.10;0.10;;;10.90;99.90;;;;;;5038961;28;20196;-81
2023/01/07 02:44:10;;;;;;;0.10;0.10;;;10.80;99.90;;;;;;5038633;28;20257;-81
2023/01/07 02:46:53;;;;;;;0.00;0.00;;;10.80;99.90;;;;;;5041491;28;20196;-81
2023/01/07 02:49:18;;;;;;;0.10;0.10;;;10.90;99.90;;;;;;5055694;28;20194;-81
2023/01/07 02:51:45;;;;;;;0.10;0.10;;;10.90;99.90;;;;;;5039217;28;20239;-82
2023/01/07 02:54:18;;;;;;;0.10;0.10;;;11.00;99.90;;;;;;5040160;28;21099;-81
2023/01/07 02:57:04;;;;;;;0.10;0.10;;;10.90;99.90;;;;;;5056211;28;20239;-81
2023/01/07 02:59:42;;;;;;;0.10;0.10;;;11.00;99.90;;;;;;5037107;28;20207;-81
2023/01/07 03:02:32;;;;;;;0.10;0.10;;;11.00;99.90;;;;;;5056411;28;20190;-81
2023/01/07 03:05:06;;;;;;;0.10;0.10;;;10.80;99.90;;;;;;5039487;28;20204;-82
2023/01/07 03:07:46;;;;;;;0.10;0.10;;;10.70;99.90;;;;;;5037236;28;20189;-80
2023/01/07 03:10:17;;;;;;;0.10;0.10;;;10.80;99.90;;;;;;5038965;28;20180;-81
2023/01/07 03:12:51;;;;;;;0.10;0.10;;;10.90;99.90;;;;;;5055262;28;20192;-81
2023/01/07 03:15:27;;;;;;;0.10;0.10;;;10.90;99.90;;;;;;5037489;28;20221;-80
2023/01/07 03:18:11;;;;;;;0.10;0.10;;;10.80;99.90;;;;;;5055550;28;20200;-81
2023/01/07 03:20:38;;;;;;;0.10;0.10;;;10.90;99.90;;;;;;5036565;28;20994;-81
2023/01/07 03:23:08;;;;;;;0.10;0.10;;;10.90;99.90;;;;;;5038956;28;20587;-80
2023/01/07 03:25:42;;;;;;;0.10;0.10;;;10.90;99.90;;;;;;5036290;28;20213;-82
2023/01/07 03:28:10;;;;;;;0.10;0.10;;;10.90;99.90;;;;;;5056133;28;20177;-81
2023/01/07 03:30:37;;;;;;;0.10;0.10;;;10.90;99.90;;;;;;5035714;28;20181;-81
2023/01/07 03:33:16;;;;;;;0.10;0.10;;;10.80;99.90;;;;;;5055190;28;20263;-81
2023/01/07 03:35:46;;;;;;;0.10;0.10;;;10.80;99.90;;;;;;5036766;28;20319;-81
2023/01/07 03:38:13;;;;;;;0.10;0.10;;;10.80;99.90;;;;;;5054906;28;20250;-81
2023/01/07 03:40:39;;;;;;;0.10;0.10;;;10.70;99.90;;;;;;5035478;28;20190;-81
2023/01/07 03:43:14;;;;;;;0.10;0.10;;;10.50;99.90;;;;;;5033504;28;20210;-81
2023/01/07 03:45:40;;;;;;;0.10;0.10;;;10.40;99.90;;;;;;5037801;28;20236;-81
2023/01/07 03:48:06;;;;;;;0.10;0.10;;;10.20;99.90;;;;;;5035292;28;20189;-81
2023/01/07 03:50:32;;;;;;;0.10;0.10;;;10.10;99.90;;;;;;5034383;28;21080;-81
2023/01/07 03:52:57;;;;;;;0.10;0.10;;;10.20;99.90;;;;;;5036248;28;20185;-81
2023/01/07 03:55:23;;;;;;;0.10;0.10;;;10.20;99.90;;;;;;5036731;28;20205;-81
2023/01/07 03:57:48;;;;;;;0.10;0.10;;;10.30;99.90;;;;;;5035437;28;20189;-81
2023/01/07 04:00:14;;;;;;;0.10;0.10;;;10.40;99.90;;;;;;5038080;28;20559;-81
2023/01/07 04:02:41;;;;;;;0.10;0.10;;;10.10;99.90;;;;;;5035636;28;20227;-82
2023/01/07 04:05:08;;;;;;;0.10;0.10;;;10.10;99.90;;;;;;5037279;28;20291;-81
2023/01/07 04:07:34;;;;;;;0.10;0.10;;;10.20;99.90;;;;;;5034604;28;20650;-81
2023/01/07 04:09:59;;;;;;;0.00;0.00;;;10.30;99.90;;;;;;5037661;28;20188;-81
2023/01/07 04:12:25;;;;;;;0.10;0.10;;;10.10;99.90;;;;;;5037110;28;20190;-81
2023/01/07 04:14:50;;;;;;;0.10;0.10;;;10.20;99.90;;;;;;5034979;28;20201;-81
2023/01/07 04:17:16;;;;;;;0.10;0.10;;;10.20;99.90;;;;;;5054528;28;20184;-81
2023/01/07 04:19:42;;;;;;;0.00;0.00;;;10.20;99.90;;;;;;5055426;28;20223;-81
2023/01/07 04:22:09;;;;;;;0.10;0.10;;;10.10;99.90;;;;;;5038092;28;20180;-81
2023/01/07 04:24:35;;;;;;;0.10;0.10;;;10.10;99.90;;;;;;5036241;28;20220;-81
2023/01/07 05:34:20;;;;;;;0.10;0.10;;;9.20;99.90;;;;;;5783534;22;20246;-83
2023/01/07 05:36:45;;;;;;;0.10;0.10;;;9.40;99.90;;;;;;4996322;28;20198;-82
2023/01/07 05:39:11;;;;;;;0.10;0.10;;;9.50;99.90;;;;;;4996651;28;20199;-82
2023/01/07 05:41:36;;;;;;;0.10;0.10;;;9.40;99.90;;;;;;4995564;28;20192;-83
2023/01/07 05:44:02;;;;;;;0.00;0.00;;;9.20;99.90;;;;;;4996551;28;20598;-82
2023/01/07 05:46:27;;;;;;;0.10;0.10;;;9.30;99.90;;;;;;4987402;28;20277;-83
2023/01/07 05:48:53;;;;;;;0.10;0.10;;;9.50;99.90;;;;;;4993663;28;20186;-81
2023/01/07 05:51:19;;;;;;;0.10;0.10;;;9.60;99.90;;;;;;4987590;28;20203;-83
2023/01/07 05:53:44;;;;;;;0.10;0.10;;;9.70;99.90;;;;;;4987193;28;20198;-82
2023/01/07 05:56:10;;;;;;;0.10;0.10;;;9.80;99.90;;;;;;4992016;28;20654;-82
2023/01/07 05:58:35;;;;;;;0.10;0.10;;;9.70;99.90;;;;;;5008758;28;20195;-81
2023/01/07 06:01:00;;;;;;;0.10;0.10;;;9.50;99.90;;;;;;5008853;28;20217;-82
2023/01/07 06:03:26;;;;;;;0.10;0.10;;;9.60;99.90;;;;;;5007985;28;20217;-82
2023/01/07 06:05:52;;;;;;;0.10;0.10;;;9.30;99.90;;;;;;4990670;28;20212;-82
2023/01/07 06:08:17;;;;;;;0.10;0.10;;;9.30;99.90;;;;;;5008296;28;20284;-82
2023/01/07 06:10:43;;;;;;;0.03;0.03;;;9.30;99.90;;;;;;4991519;28;20197;-82
2023/01/07 06:13:09;;;;;;;0.10;0.10;;;9.30;99.90;;;;;;5007850;28;20193;-82
2023/01/07 06:15:34;;;;;;;0.10;0.10;;;9.20;99.90;;;;;;4990497;28;20221;-82
2023/01/07 06:18:00;;;;;;;0.10;0.10;;;9.30;99.90;;;;;;4989176;28;20302;-81
2023/01/07 06:20:25;;;;;;;0.10;0.10;;;9.40;99.90;;;;;;4991235;28;20197;-81
2023/01/07 06:22:51;;;;;;;0.10;0.10;;;9.30;99.90;;;;;;5007902;28;20707;-82
2023/01/07 06:25:16;;;;;;;0.10;0.10;;;9.20;99.90;;;;;;5008810;28;20203;-82
2023/01/07 06:27:42;;;;;;;0.10;0.10;;;9.20;99.90;;;;;;4990210;28;20186;-82
2023/01/07 06:30:09;;;;;;;0.10;0.10;;;9.10;99.90;;;;;;4989957;28;20590;-82
2023/01/07 06:32:40;;;;;;;0.10;0.10;;;9.10;99.90;;;;;;4989351;28;20639;-82
2023/01/07 06:35:07;;;;;;;0.10;0.10;;;9.20;99.90;;;;;;5007477;28;20207;-82
2023/01/07 06:37:33;;;;;;;0.10;0.10;;;9.00;99.90;;;;;;5006780;28;20644;-82
2023/01/07 06:39:59;;;;;;;0.10;0.10;;;9.00;99.90;;;;;;4989047;28;20197;-83
2023/01/07 06:42:24;;;;;;;0.10;0.10;;;9.10;99.90;;;;;;5006919;28;20193;-83
2023/01/07 06:44:50;;;;;;;0.10;0.10;;;9.00;99.90;;;;;;4987811;28;20206;-81
2023/01/07 06:47:15;;;;;;;0.10;0.10;;;9.00;99.90;;;;;;5006951;28;20221;-83
2023/01/07 06:49:41;;;;;;;0.10;0.10;;;8.90;99.90;;;;;;4986875;28;20720;-81
2023/01/07 06:52:06;;;;;;;0.10;0.10;;;8.80;99.90;;;;;;4989585;28;20190;-83
2023/01/07 06:54:32;;;;;;;0.10;0.10;;;8.90;99.90;;;;;;5009954;28;20215;-81
2023/01/07 06:56:57;;;;;;;0.10;0.10;;;8.80;99.90;;;;;;4993244;28;20278;-81
2023/01/07 06:59:23;;;;;;;0.10;0.10;;;8.90;99.90;;;;;;4993036;28;20190;-80
2023/01/07 07:01:48;;;;;;;0.10;0.10;;;8.90;99.90;;;;;;4990932;28;20242;-81
2023/01/07 07:04:14;;;;;;;0.10;0.10;;;9.00;99.90;;;;;;4991827;28;20217;-81
2023/01/07 07:06:39;;;;;;;0.10;0.10;;;8.90;99.90;;;;;;4992808;28;20202;-82
2023/01/07 07:09:05;;;;;;;0.10;0.10;;;8.90;99.90;;;;;;4991335;28;21111;-82
2023/01/07 07:11:30;;;;;;;0.10;0.10;;;8.90;99.90;;;;;;4991566;28;20187;-81
2023/01/07 07:13:56;;;;;;;0.10;0.10;;;8.90;99.90;;;;;;4992013;28;20213;-82
2023/01/07 07:16:22;;;;;;;0.10;0.10;;;9.00;99.90;;;;;;5008729;28;20222;-81
2023/01/07 07:18:48;;;;;;;0.10;0.10;;;9.00;99.90;;;;;;5007682;28;20193;-82
2023/01/07 07:21:14;;;;;;;0.10;0.10;;;9.00;99.90;;;;;;4991727;28;20194;-83
2023/01/07 07:23:39;;;;;;;0.00;0.00;;;9.10;99.90;;;;;;5009613;28;20222;-81
2023/01/07 07:26:05;;;;;;;0.10;0.10;;;9.20;99.90;;;;;;4992379;28;20650;-81
2023/01/07 07:28:30;;;;;;;0.10;0.10;;;9.20;99.90;;;;;;4992050;28;20177;-81
2023/01/07 07:30:56;;;;;;;0.10;0.10;;;9.40;99.90;;;;;;4992070;28;20185;-81
2023/01/07 07:33:21;;;;;;;0.10;0.10;;;9.40;99.90;;;;;;4992077;28;20689;-83
2023/01/07 07:35:47;;;;;;;0.07;0.07;;;9.50;99.90;;;;;;4990601;28;20218;-83
2023/01/07 07:38:13;;;;;;;0.10;0.10;;;9.40;99.90;;;;;;4992702;28;20520;-82
2023/01/07 07:40:38;;;;;;;0.10;0.10;;;9.40;99.90;;;;;;5009525;28;20186;-81
2023/01/07 07:43:04;;;;;;;0.10;0.10;;;9.30;99.90;;;;;;4991646;28;21209;-82
2023/01/07 07:45:29;;;;;;;0.10;0.10;;;9.20;99.90;;;;;;5008550;28;20213;-81
2023/01/07 07:47:55;;;;;;;0.10;0.10;;;9.20;99.90;;;;;;4989963;28;20245;-82
2023/01/07 07:50:21;;;;;;;0.10;0.10;;;9.20;99.90;;;;;;4987758;28;20229;-82
2023/01/07 07:52:46;;;;;;;0.10;0.10;;;9.20;99.90;;;;;;5004213;28;20230;-82
2023/01/07 07:55:12;;;;;;;0.10;0.10;;;9.20;99.90;;;;;;5004599;28;20706;-82
2023/01/07 07:57:37;;;;;;;0.10;0.10;;;9.30;99.90;;;;;;4990886;28;20559;-82
2023/01/07 08:00:04;;;;;;;0.10;0.10;;;9.30;99.90;;;;;;4988565;28;20185;-82
2023/01/07 08:02:29;;;;;;;0.10;0.10;;;9.30;99.90;;;;;;5005423;28;20195;-81
2023/01/07 08:04:57;;;;;;;0.10;0.10;;;9.30;99.90;;;;;;5006284;28;20236;-81
2023/01/07 08:07:22;;;;;;;0.10;0.10;;;9.30;99.90;;;;;;4989396;28;20726;-82
2023/01/07 08:09:48;;;;;;;0.00;0.00;;;9.40;99.90;;;;;;4988645;28;20269;-82
2023/01/07 08:12:13;;;;;;;0.00;0.00;;;9.40;99.90;;;;;;5006631;28;20186;-82
2023/01/07 08:14:39;;;;;;;0.10;0.10;;;9.40;99.90;;;;;;4988625;28;20214;-82
2023/01/07 08:17:04;;;;;;;0.10;0.10;;;9.40;99.90;;;;;;4988172;28;20194;-82
2023/01/07 08:19:29;;;;;;;0.10;0.10;;;9.40;99.90;;;;;;5006078;28;20187;-82
2023/01/07 08:21:55;;;;;;;0.10;0.10;;;9.50;99.90;;;;;;4988341;28;20716;-82
2023/01/07 08:24:20;;;;;;;0.10;0.10;;;9.60;99.90;;;;;;4988176;28;20213;-82
2023/01/07 08:26:46;;;;;;;0.10;0.10;;;9.80;99.90;;;;;;5006477;28;20193;-82
2023/01/07 08:29:11;;;;;;;0.10;0.10;;;9.90;99.90;;;;;;4987265;28;20233;-82
2023/01/07 08:31:37;;;;;;;0.10;0.10;;;10.00;99.90;;;;;;4988417;28;20199;-82
2023/01/07 08:34:02;;;;;;;0.10;0.10;;;10.20;99.90;;;;;;4988821;28;20206;-82
2023/01/07 08:36:28;;;;;;;0.10;0.10;;;10.30;99.90;;;;;;4989938;28;20206;-81
2023/01/07 08:38:54;;;;;;;0.03;0.03;;;10.20;99.90;;;;;;4988276;28;20282;-82
2023/01/07 08:41:22;;;;;;;0.10;0.10;;;10.30;99.90;;;;;;5007365;28;20187;-81
2023/01/07 08:43:47;;;;;;;0.00;0.00;;;10.30;99.90;;;;;;4995507;28;20636;-81
2023/01/07 08:46:13;;;;;;;0.10;0.10;;;10.40;99.90;;;;;;4986207;28;20187;-81
2023/01/07 08:48:39;;;;;;;0.10;0.10;;;10.50;99.90;;;;;;4986862;28;20202;-82
2023/01/07 08:51:05;;;;;;;0.10;0.10;;;10.50;99.90;;;;;;5002738;28;20183;-82
2023/01/07 08:53:30;;;;;;;0.10;0.10;;;10.60;99.90;;;;;;4999864;28;20191;-82
2023/01/07 08:55:56;;;;;;;0.10;0.10;;;10.40;99.90;;;;;;5003167;28;20214;-81
2023/01/07 08:58:21;;;;;;;0.10;0.10;;;10.40;99.90;;;;;;4985910;28;20302;-83
2023/01/07 09:00:48;;;;;;;0.10;0.10;;;10.40;99.90;;;;;;4987074;28;20182;-82
2023/01/07 09:03:13;;;;;;;0.10;0.10;;;10.40;99.90;;;;;;5003823;28;20245;-80
2023/01/07 09:05:39;;;;;;;0.00;0.00;;;10.50;99.90;;;;;;4987527;28;20621;-80
2023/01/07 09:08:05;;;;;;;0.03;0.03;;;10.50;99.90;;;;;;4987234;28;20218;-84
2023/01/07 09:10:30;;;;;;;0.10;0.10;;;10.40;99.90;;;;;;4985779;28;20186;-83
2023/01/07 09:12:56;;;;;;;0.10;0.10;;;10.50;99.90;;;;;;5003500;28;20229;-84
2023/01/07 09:15:21;;;;;;;0.07;0.07;;;10.50;99.90;;;;;;4998281;28;20679;-84
2023/01/07 09:17:47;;;;;;;0.10;0.10;;;10.50;99.90;;;;;;4985072;28;20190;-85
2023/01/07 09:20:12;;;;;;;0.10;0.10;;;10.50;99.90;;;;;;4986254;28;21254;-82
2023/01/07 09:22:38;;;;;;;0.10;0.10;;;10.60;99.90;;;;;;5004433;28;20249;-82
2023/01/07 09:25:05;;;;;;;0.10;0.10;;;10.60;99.90;;;;;;4986657;28;20207;-82
2023/01/07 09:27:31;;;;;;;0.10;0.10;;;10.70;99.90;;;;;;4986859;28;20218;-82
2023/01/07 09:29:57;;;;;;;0.10;0.10;;;10.70;99.90;;;;;;5009628;28;20662;-82
2023/01/07 09:32:27;;;;;;;0.10;0.10;;;10.70;99.90;;;;;;5006617;28;20190;-84
2023/01/07 09:34:53;;;;;;;0.10;0.10;;;10.70;99.90;;;;;;5007341;28;20293;-82
2023/01/07 09:37:19;;;;;;;0.10;0.10;;;10.70;99.90;;;;;;4989081;28;20179;-81
2023/01/07 09:39:45;;;;;;;0.10;0.10;;;10.70;99.90;;;;;;4990214;28;20239;-81
2023/01/07 09:42:19;;;;;;;0.10;0.10;;;10.80;99.90;;;;;;5007473;28;20187;-81
2023/01/07 09:45:01;;;;;;;0.10;0.10;;;10.70;99.90;;;;;;4986919;28;20210;-80
2023/01/07 09:47:28;;;;;;;0.10;0.10;;;10.80;99.90;;;;;;4989883;28;20261;-81
2023/01/07 09:50:00;;;;;;;0.10;0.10;;;10.80;99.90;;;;;;5005201;28;20178;-80
2023/01/07 09:52:37;;;;;;;0.10;0.10;;;10.90;99.90;;;;;;4990236;28;20199;-81
2023/01/07 09:55:14;;;;;;;0.10;0.10;;;10.90;99.90;;;;;;4987969;28;20627;-80
2023/01/07 09:57:40;;;;;;;0.10;0.10;;;10.90;99.90;;;;;;4989320;28;20610;-81
2023/01/07 10:00:17;;;;;;;0.10;0.10;;;11.00;99.90;;;;;;5006851;28;20266;-84
2023/01/07 10:03:01;;;;;;;0.10;0.10;;;11.00;99.90;;;;;;4987995;28;20210;-83
2023/01/07 10:05:38;;;;;;;0.00;0.00;;;11.10;99.90;;;;;;4989431;28;20210;-81
2023/01/07 10:08:45;;;;;;;0.10;0.10;;;11.10;99.90;;;;;;4988500;28;20179;-83
2023/01/07 10:11:30;;;;;;;0.10;0.10;;;11.10;99.90;;;;;;4989633;28;20187;-84
2023/01/07 10:14:28;;;;;;;0.10;0.10;;;11.30;99.90;;;;;;4990102;28;20214;-83
2023/01/07 10:17:21;;;;;;;0.10;0.10;;;11.40;99.90;;;;;;4990291;28;20190;-82
2023/01/07 10:19:47;;;;;;;0.10;0.10;;;11.40;99.90;;;;;;4989160;28;20263;-84
2023/01/07 10:22:27;;;;;;;0.10;0.10;;;11.40;99.90;;;;;;4989577;28;20603;-84
2023/01/07 10:25:02;;;;;;;0.10;0.10;;;11.40;99.90;;;;;;4988563;28;20577;-82
2023/01/07 10:27:36;;;;;;;0.10;0.10;;;11.40;99.90;;;;;;4990164;28;20726;-84
2023/01/07 10:30:05;;;;;;;0.10;0.10;;;11.50;99.90;;;;;;4988897;28;20187;-83
2023/01/07 10:32:35;;;;;;;0.10;0.10;;;11.50;99.90;;;;;;4989525;28;21158;-84
2023/01/07 10:35:02;;;;;;;0.10;0.10;;;11.60;99.90;;;;;;4986092;28;20913;-82
2023/01/07 10:37:35;;;;;;;0.10;0.10;;;11.60;99.90;;;;;;5005489;28;21000;-83
2023/01/07 10:40:35;;;;;;;0.10;0.10;;;11.70;99.90;;;;;;4987011;28;20655;-82
2023/01/07 10:43:06;;;;;;;0.10;0.10;;;11.70;99.90;;;;;;4988717;28;20199;-83
2023/01/07 10:45:57;;;;;;;0.07;0.07;;;11.80;99.90;;;;;;4987916;28;20294;-82
2023/01/07 10:49:20;;;;;;;0.10;0.10;;;11.90;99.90;;;;;;4988717;28;20187;-84
2023/01/07 10:51:57;;;;;;;0.10;0.10;;;11.90;99.90;;;;;;4891657;29;20221;-83
2023/01/07 10:54:41;;;;;;;0.10;0.10;;;11.90;99.90;;;;;;4891240;29;20300;-83
2023/01/07 10:57:18;;;;;;;0.10;0.10;;;12.00;99.90;;;;;;4969372;28;20201;-84
2023/01/07 10:59:51;;;;;;;0.10;0.10;;;12.00;99.90;;;;;;4990281;28;20218;-82
2023/01/07 11:02:25;;;;;;;0.10;0.10;;;12.10;99.90;;;;;;4990881;28;20201;-82
2023/01/07 11:04:53;;;;;;;0.10;0.10;;;12.00;99.90;;;;;;4989962;28;20213;-82
2023/01/07 11:07:30;;;;;;;0.10;0.10;;;11.90;99.90;;;;;;4989397;28;20237;-83
2023/01/07 11:10:00;;;;;;;0.10;0.10;;;12.00;99.90;;;;;;4990833;28;20920;-83
2023/01/07 11:12:35;;;;;;;0.10;0.10;;;12.10;99.90;;;;;;4991681;28;20597;-82
2023/01/07 11:15:06;;;;;;;0.10;0.10;;;12.10;99.90;;;;;;4988253;28;20206;-83
2023/01/07 11:17:45;;;;;;;0.10;0.10;;;12.10;99.90;;;;;;5006991;28;20655;-83
2023/01/07 11:20:11;;;;;;;0.10;0.10;;;12.00;99.90;;;;;;4988525;28;20229;-84
2023/01/07 11:22:38;;;;;;;0.10;0.10;;;12.10;99.90;;;;;;4989352;28;20179;-84
2023/01/07 11:25:28;;;;;;;0.10;0.10;;;12.00;99.90;;;;;;4988549;28;21131;-83
2023/01/07 11:27:58;;;;;;;0.10;0.10;;;11.90;99.90;;;;;;5006682;28;20187;-83
2023/01/07 11:30:26;;;;;;;0.10;0.10;;;11.80;99.90;;;;;;4986919;28;20702;-84
2023/01/07 11:32:58;;;;;;;0.10;0.10;;;11.80;99.90;;;;;;4988173;28;20191;-84
2023/01/07 11:35:27;;;;;;;0.10;0.10;;;11.80;99.90;;;;;;4986452;28;20735;-84
2023/01/07 11:37:53;;;;;;;0.10;0.10;;;11.80;99.90;;;;;;4989155;28;20652;-84
2023/01/07 11:40:21;;;;;;;0.10;0.10;;;11.80;99.90;;;;;;5006188;28;20183;-83
2023/01/07 11:42:53;;;;;;;0.10;0.10;;;11.80;99.90;;;;;;4997230;28;20236;-84
2023/01/07 11:45:22;;;;;;;0.10;0.10;;;11.80;99.90;;;;;;5002893;28;20205;-85
2023/01/07 11:48:33;;;;;;;0.10;0.10;;;11.70;99.90;;;;;;4987218;28;20193;-82
2023/01/07 11:51:01;;;;;;;0.10;0.10;;;11.70;99.90;;;;;;4943870;28;20644;-84
2023/01/07 11:53:34;;;;;;;0.10;0.10;;;11.60;99.90;;;;;;4985479;28;20191;-84
2023/01/07 11:56:20;;;;;;;0.10;0.10;;;11.60;99.90;;;;;;4987546;28;20636;-84
2023/01/07 11:58:48;;;;;;;0.10;0.10;;;11.60;99.90;;;;;;4986677;28;20285;-83
2023/01/07 12:01:15;;;;;;;0.10;0.10;;;11.60;99.90;;;;;;4997007;28;20198;-85
2023/01/07 12:03:53;;;;;;;0.10;0.10;;;11.60;99.90;;;;;;5001701;28;20356;-84
2023/01/07 12:06:21;;;;;;;0.10;0.10;;;11.70;99.90;;;;;;4971407;28;20201;-83
2023/01/07 12:09:31;;;;;;;0.10;0.10;;;11.70;99.90;;;;;;5007509;28;20691;-82
2023/01/07 12:11:59;;;;;;;0.10;0.10;;;11.70;99.90;;;;;;4962454;28;20202;-83
2023/01/07 12:14:34;;;;;;;0.10;0.10;;;11.60;99.90;;;;;;4996470;28;20207;-83
2023/01/07 12:17:16;;;;;;;0.00;0.00;;;11.60;99.90;;;;;;4987607;28;20186;-82
2023/01/07 12:20:03;;;;;;;0.10;0.10;;;11.50;99.90;;;;;;5008389;28;20197;-83
2023/01/07 12:23:05;;;;;;;0.10;0.10;;;11.50;99.90;;;;;;4988597;28;20230;-82
2023/01/07 12:26:03;;;;;;;0.00;0.00;;;11.50;99.90;;;;;;4966181;28;20304;-82
2023/01/07 12:28:51;;;;;;;0.10;0.10;;;11.40;99.90;;;;;;4972669;28;20195;-83
2023/01/07 12:31:35;;;;;;;0.10;0.10;;;11.40;99.90;;;;;;4989754;28;20243;-83
2023/01/07 12:34:23;;;;;;;0.10;0.10;;;11.40;99.90;;;;;;4999839;28;20230;-82
2023/01/07 12:37:08;;;;;;;0.10;0.10;;;11.40;99.90;;;;;;5003570;28;20637;-81
2023/01/07 12:39:43;;;;;;;0.10;0.10;;;11.40;99.90;;;;;;4988120;28;20191;-84
2023/01/07 12:42:24;;;;;;;0.10;0.10;;;11.40;99.90;;;;;;4986517;28;20773;-86
2023/01/07 12:44:58;;;;;;;0.10;0.10;;;11.40;99.90;;;;;;4984665;28;20214;-84
2023/01/07 12:47:30;;;;;;;0.10;0.10;;;11.40;99.90;;;;;;4986758;28;20535;-83
2023/01/07 12:50:17;;;;;;;0.10;0.10;;;11.30;99.90;;;;;;4986270;28;20178;-83
2023/01/07 12:52:48;;;;;;;0.10;0.10;;;11.40;99.90;;;;;;4989619;28;20256;-83
2023/01/07 12:55:20;;;;;;;0.10;0.10;;;11.40;99.90;;;;;;4999465;28;20286;-83
2023/01/07 12:58:15;;;;;;;0.10;0.10;;;11.40;99.90;;;;;;5005870;28;20579;-84
2023/01/07 13:00:46;;;;;;;0.10;0.10;;;11.30;99.90;;;;;;5007080;28;20798;-84
2023/01/07 13:03:21;;;;;;;0.10;0.10;;;11.30;99.90;;;;;;5008845;28;20675;-83
2023/01/07 13:06:09;;;;;;;0.10;0.10;;;11.30;99.90;;;;;;5010622;28;20205;-84
2023/01/07 13:08:42;;;;;;;0.10;0.10;;;11.30;99.90;;;;;;5010475;28;20175;-84
2023/01/07 13:12:41;;;;;;;0.10;0.10;;;11.30;99.90;;;;;;4992520;28;20234;-83
2023/01/07 13:14:35;;;;;;;0.10;0.10;;;11.20;99.90;;;;;;5009585;28;20205;-85
2023/01/07 13:17:23;;;;;;;0.10;0.10;;;11.20;99.90;;;;;;4984247;28;20286;-83
2023/01/07 13:19:49;;;;;;;0.10;0.10;;;11.20;99.90;;;;;;5002573;28;20175;-82
2023/01/07 13:22:22;;;;;;;0.10;0.10;;;11.20;99.90;;;;;;4993538;28;20640;-83
2023/01/07 13:24:58;;;;;;;0.10;0.10;;;11.20;99.90;;;;;;4993474;28;20210;-84
2023/01/07 13:27:55;;;;;;;0.10;0.10;;;11.20;99.90;;;;;;4992928;28;20202;-84
2023/01/07 13:30:24;;;;;;;0.10;0.10;;;11.20;99.90;;;;;;4992198;28;20181;-83
2023/01/07 13:32:49;;;;;;;0.10;0.10;;;11.20;99.90;;;;;;4993057;28;20183;-84
2023/01/07 13:35:32;;;;;;;0.10;0.10;;;11.20;99.90;;;;;;4992416;28;20218;-83
2023/01/07 13:38:05;;;;;;;0.10;0.10;;;11.20;99.90;;;;;;4992676;28;20185;-83
2023/01/07 13:40:58;;;;;;;0.10;0.10;;;11.30;99.90;;;;;;5012280;28;20178;-83
2023/01/07 13:44:03;;;;;;;0.10;0.10;;;11.30;99.90;;;;;;4993860;28;20223;-83
2023/01/07 13:46:35;;;;;;;0.10;0.10;;;11.30;99.90;;;;;;4950357;28;20218;-82
2023/01/07 13:49:00;;;;;;;0.10;0.10;;;11.30;99.90;;;;;;4995505;28;20179;-82
2023/01/07 13:51:30;;;;;;;0.10;0.10;;;11.30;99.90;;;;;;4993802;28;20246;-84
2023/01/07 13:53:56;;;;;;;0.10;0.10;;;11.30;99.90;;;;;;5000672;28;20189;-83
2023/01/07 13:56:22;;;;;;;0.10;0.10;;;11.30;99.90;;;;;;4993816;28;20550;-84
2023/01/07 13:58:54;;;;;;;0.10;0.10;;;11.30;99.90;;;;;;4993820;28;20211;-83
2023/01/07 14:01:26;;;;;;;0.10;0.10;;;11.30;99.90;;;;;;4993797;28;20183;-83
2023/01/07 14:03:57;;;;;;;0.10;0.10;;;11.20;99.90;;;;;;5010009;28;20207;-84
2023/01/07 14:06:25;;;;;;;0.10;0.10;;;11.20;99.90;;;;;;4991825;28;20185;-83
2023/01/07 14:08:55;;;;;;;0.10;0.10;;;11.30;99.90;;;;;;5008881;28;20187;-84
2023/01/07 14:11:29;;;;;;;0.10;0.10;;;11.20;99.90;;;;;;5010459;28;20178;-82
2023/01/07 14:14:23;;;;;;;0.10;0.10;;;11.30;99.90;;;;;;4990186;28;20194;-83
2023/01/07 14:17:05;;;;;;;0.03;0.03;;;11.30;99.90;;;;;;4992062;28;20186;-84
2023/01/07 14:19:46;;;;;;;0.10;0.10;;;11.30;99.90;;;;;;4989739;28;20190;-83
2023/01/07 14:22:38;;;;;;;0.10;0.10;;;11.30;99.90;;;;;;4990442;28;20182;-83